IB966 KJFK-KRDU
Flight info
| Callsign | IB966 |
|---|---|
| Flight time | 1h 40m |
| Altitude | 20000 |
| Route | DCT WAVEY DCT EMJAY Q167 ZJAAY TAQLE3 |
| Aircraft | A320/M-V/N |
Departure
| Time | 2026-05-06 23:48 |
|---|---|
| Airport | John F. Kennedy International Airport (KJFK) |
Arrival
| Time | 2026-05-07 01:28 |
|---|---|
| Airport | Raleigh-Durham International Airport (KRDU) |
| Time | Latitude | Longitude | Altitude | Speed | Heading |
|---|---|---|---|---|---|
| 2026-05-06 22:43 | 40.64988 | -73.80673 | 20 ft | 0 kts | 332° |
| 2026-05-06 23:07 | 40.64985 | -73.80671 | 20 ft | 2 kts | 332° |
| 2026-05-06 23:08 | 40.64956 | -73.80651 | 20 ft | 10 kts | 332° |
| 2026-05-06 23:08 | 40.64949 | -73.80646 | 20 ft | 0 kts | 332° |
| 2026-05-06 23:10 | 40.64946 | -73.80644 | 21 ft | 4 kts | 336° |
| 2026-05-06 23:10 | 40.64943 | -73.80642 | 21 ft | 2 kts | 340° |
| 2026-05-06 23:10 | 40.64941 | -73.80641 | 22 ft | 0 kts | 334° |
| 2026-05-06 23:11 | 40.64935 | -73.80637 | 22 ft | 3 kts | 323° |
| 2026-05-06 23:11 | 40.64935 | -73.80647 | 21 ft | 1 kts | 266° |
| 2026-05-06 23:13 | 40.64934 | -73.80646 | 21 ft | 2 kts | 248° |
| 2026-05-06 23:13 | 40.64933 | -73.80649 | 21 ft | 0 kts | 242° |
| 2026-05-06 23:19 | 40.64928 | -73.80658 | 21 ft | 5 kts | 236° |
| 2026-05-06 23:20 | 40.64916 | -73.80681 | 20 ft | 8 kts | 233° |
| 2026-05-06 23:20 | 40.64866 | -73.80779 | 21 ft | 18 kts | 231° |
| 2026-05-06 23:20 | 40.64750 | -73.80889 | 21 ft | 23 kts | 221° |
| 2026-05-06 23:20 | 40.64698 | -73.80967 | 21 ft | 7 kts | 283° |
| 2026-05-06 23:21 | 40.64742 | -73.81074 | 21 ft | 19 kts | 301° |
| 2026-05-06 23:21 | 40.64830 | -73.81270 | 21 ft | 30 kts | 301° |
| 2026-05-06 23:21 | 40.64942 | -73.81531 | 20 ft | 21 kts | 278° |
| 2026-05-06 23:21 | 40.64934 | -73.81564 | 23 ft | 6 kts | 244° |
| 2026-05-06 23:22 | 40.64917 | -73.81586 | 21 ft | 0 kts | 216° |
| 2026-05-06 23:24 | 40.64913 | -73.81590 | 21 ft | 2 kts | 214° |
| 2026-05-06 23:24 | 40.64883 | -73.81613 | 22 ft | 9 kts | 208° |
| 2026-05-06 23:24 | 40.64819 | -73.81586 | 22 ft | 14 kts | 124° |
| 2026-05-06 23:25 | 40.64865 | -73.81495 | 21 ft | 18 kts | 32° |
| 2026-05-06 23:25 | 40.64895 | -73.81458 | 20 ft | 0 kts | 73° |
| 2026-05-06 23:26 | 40.64895 | -73.81423 | 20 ft | 10 kts | 101° |
| 2026-05-06 23:26 | 40.64844 | -73.81297 | 21 ft | 21 kts | 122° |
| 2026-05-06 23:26 | 40.64752 | -73.81097 | 21 ft | 30 kts | 120° |
| 2026-05-06 23:26 | 40.64635 | -73.80834 | 21 ft | 36 kts | 120° |
| 2026-05-06 23:27 | 40.64503 | -73.80543 | 20 ft | 28 kts | 122° |
| 2026-05-06 23:27 | 40.64481 | -73.80496 | 20 ft | 5 kts | 121° |
| 2026-05-06 23:27 | 40.64445 | -73.80416 | 20 ft | 16 kts | 121° |
| 2026-05-06 23:27 | 40.64368 | -73.80250 | 20 ft | 26 kts | 121° |
| 2026-05-06 23:28 | 40.64260 | -73.80013 | 20 ft | 31 kts | 126° |
| 2026-05-06 23:28 | 40.64199 | -73.79929 | 23 ft | 0 kts | 132° |
| 2026-05-06 23:29 | 40.64176 | -73.79895 | 21 ft | 11 kts | 132° |
| 2026-05-06 23:29 | 40.64107 | -73.79779 | 23 ft | 21 kts | 122° |
| 2026-05-06 23:29 | 40.64014 | -73.79576 | 20 ft | 30 kts | 117° |
| 2026-05-06 23:29 | 40.63892 | -73.79309 | 21 ft | 38 kts | 120° |
| 2026-05-06 23:30 | 40.63751 | -73.78990 | 21 ft | 43 kts | 121° |
| 2026-05-06 23:30 | 40.63603 | -73.78675 | 22 ft | 17 kts | 122° |
| 2026-05-06 23:30 | 40.63595 | -73.78656 | 22 ft | 3 kts | 119° |
| 2026-05-06 23:30 | 40.63576 | -73.78610 | 22 ft | 8 kts | 117° |
| 2026-05-06 23:31 | 40.63542 | -73.78528 | 23 ft | 12 kts | 122° |
| 2026-05-06 23:31 | 40.63489 | -73.78417 | 23 ft | 16 kts | 121° |
| 2026-05-06 23:31 | 40.63425 | -73.78272 | 21 ft | 20 kts | 120° |
| 2026-05-06 23:31 | 40.63350 | -73.78106 | 25 ft | 14 kts | 121° |
| 2026-05-06 23:32 | 40.63342 | -73.78088 | 21 ft | 4 kts | 117° |
| 2026-05-06 23:32 | 40.63330 | -73.78035 | 23 ft | 8 kts | 102° |
| 2026-05-06 23:32 | 40.63331 | -73.77938 | 21 ft | 13 kts | 80° |
| 2026-05-06 23:32 | 40.63377 | -73.77820 | 22 ft | 16 kts | 45° |
| 2026-05-06 23:33 | 40.63483 | -73.77726 | 21 ft | 21 kts | 28° |
| 2026-05-06 23:33 | 40.63579 | -73.77653 | 20 ft | 11 kts | 32° |
| 2026-05-06 23:33 | 40.63584 | -73.77649 | 20 ft | 0 kts | 32° |
| 2026-05-06 23:33 | 40.63596 | -73.77639 | 20 ft | 5 kts | 32° |
| 2026-05-06 23:34 | 40.63606 | -73.77631 | 20 ft | 2 kts | 32° |
| 2026-05-06 23:34 | 40.63617 | -73.77621 | 20 ft | 0 kts | 35° |
| 2026-05-06 23:35 | 40.63633 | -73.77607 | 20 ft | 5 kts | 32° |
| 2026-05-06 23:35 | 40.63681 | -73.77571 | 21 ft | 11 kts | 30° |
| 2026-05-06 23:35 | 40.63761 | -73.77509 | 19 ft | 16 kts | 30° |
| 2026-05-06 23:35 | 40.63870 | -73.77424 | 20 ft | 20 kts | 31° |
| 2026-05-06 23:36 | 40.64003 | -73.77321 | 20 ft | 24 kts | 31° |
| 2026-05-06 23:36 | 40.64157 | -73.77199 | 21 ft | 27 kts | 31° |
| 2026-05-06 23:36 | 40.64315 | -73.77075 | 20 ft | 10 kts | 30° |
| 2026-05-06 23:36 | 40.64331 | -73.77063 | 20 ft | 0 kts | 30° |
| 2026-05-06 23:37 | 40.64333 | -73.77062 | 20 ft | 2 kts | 30° |
| 2026-05-06 23:37 | 40.64359 | -73.77041 | 20 ft | 7 kts | 30° |
| 2026-05-06 23:37 | 40.64419 | -73.76999 | 20 ft | 13 kts | 26° |
| 2026-05-06 23:37 | 40.64480 | -73.76990 | 20 ft | 9 kts | 18° |
| 2026-05-06 23:38 | 40.64560 | -73.76985 | 20 ft | 14 kts | 358° |
| 2026-05-06 23:38 | 40.64631 | -73.76988 | 20 ft | 17 kts | 356° |
| 2026-05-06 23:38 | 40.64733 | -73.77038 | 20 ft | 0 kts | 327° |
| 2026-05-06 23:38 | 40.64741 | -73.77045 | 20 ft | 4 kts | 325° |
| 2026-05-06 23:39 | 40.64761 | -73.77070 | 21 ft | 0 kts | 316° |
| 2026-05-06 23:41 | 40.64768 | -73.77076 | 20 ft | 3 kts | 326° |
| 2026-05-06 23:41 | 40.64804 | -73.77085 | 21 ft | 7 kts | 5° |
| 2026-05-06 23:41 | 40.64827 | -73.77065 | 21 ft | 1 kts | 51° |
| 2026-05-06 23:41 | 40.64828 | -73.77063 | 21 ft | 0 kts | 51° |
| 2026-05-06 23:42 | 40.64830 | -73.77060 | 21 ft | 2 kts | 51° |
| 2026-05-06 23:43 | 40.64857 | -73.77015 | 23 ft | 12 kts | 53° |
| 2026-05-06 23:43 | 40.64879 | -73.76975 | 23 ft | 8 kts | 55° |
| 2026-05-06 23:43 | 40.64884 | -73.76966 | 24 ft | 0 kts | 55° |
| 2026-05-06 23:45 | 40.64892 | -73.76949 | 21 ft | 8 kts | 60° |
| 2026-05-06 23:45 | 40.64909 | -73.76838 | 21 ft | 17 kts | 122° |
| 2026-05-06 23:46 | 40.64902 | -73.76672 | 22 ft | 6 kts | 40° |
| 2026-05-06 23:46 | 40.64924 | -73.76634 | 23 ft | 12 kts | 65° |
| 2026-05-06 23:46 | 40.64924 | -73.76593 | 23 ft | 8 kts | 105° |
| 2026-05-06 23:46 | 40.64920 | -73.76575 | 24 ft | 1 kts | 111° |
| 2026-05-06 23:47 | 40.64891 | -73.76515 | 23 ft | 13 kts | 127° |
| 2026-05-06 23:47 | 40.64815 | -73.76520 | 21 ft | 0 kts | 217° |
| 2026-05-06 23:47 | 40.64764 | -73.76556 | 21 ft | 42 kts | 211° |
| 2026-05-06 23:47 | 40.64224 | -73.76979 | 21 ft | 134 kts | 211° |
| 2026-05-06 23:48 | 40.63314 | -73.77699 | 630 ft | 151 kts | 211° |
| 2026-05-06 23:48 | 40.62398 | -73.78381 | 1471 ft | 171 kts | 206° |
| 2026-05-06 23:48 | 40.60959 | -73.78654 | 1509 ft | 249 kts | 179° |
| 2026-05-06 23:48 | 40.59117 | -73.77808 | 1686 ft | 312 kts | 151° |
| 2026-05-06 23:49 | 40.57482 | -73.75750 | 2674 ft | 335 kts | 134° |
| 2026-05-06 23:49 | 40.55974 | -73.73361 | 3902 ft | 342 kts | 134° |
| 2026-05-06 23:49 | 40.54344 | -73.71062 | 5177 ft | 347 kts | 140° |
| 2026-05-06 23:49 | 40.52556 | -73.68903 | 6403 ft | 351 kts | 143° |
| 2026-05-06 23:50 | 40.50654 | -73.66832 | 7526 ft | 358 kts | 147° |
| 2026-05-06 23:50 | 40.46415 | -73.62656 | 8364 ft | 415 kts | 150° |
| 2026-05-06 23:50 | 40.44014 | -73.60477 | 9327 ft | 420 kts | 150° |
| 2026-05-06 23:51 | 40.41610 | -73.58263 | 10454 ft | 423 kts | 150° |
| 2026-05-06 23:51 | 40.39198 | -73.56007 | 11464 ft | 429 kts | 150° |
| 2026-05-06 23:51 | 40.36723 | -73.53691 | 11809 ft | 452 kts | 152° |
| 2026-05-06 23:51 | 40.34035 | -73.51647 | 12907 ft | 447 kts | 158° |
| 2026-05-06 23:52 | 40.31329 | -73.49645 | 13823 ft | 436 kts | 157° |
| 2026-05-06 23:52 | 40.28736 | -73.47672 | 11954 ft | 447 kts | 156° |
| 2026-05-06 23:52 | 40.26064 | -73.45617 | 12105 ft | 427 kts | 155° |
| 2026-05-06 23:52 | 40.23712 | -73.43370 | 12716 ft | 417 kts | 143° |
| 2026-05-06 23:53 | 40.21817 | -73.40467 | 12728 ft | 421 kts | 133° |
| 2026-05-06 23:53 | 40.20002 | -73.37490 | 12691 ft | 415 kts | 137° |
| 2026-05-06 23:53 | 40.18008 | -73.34808 | 12649 ft | 408 kts | 143° |
| 2026-05-06 23:53 | 40.15876 | -73.32413 | 12634 ft | 402 kts | 148° |
| 2026-05-06 23:54 | 40.13666 | -73.30333 | 12599 ft | 391 kts | 158° |
| 2026-05-06 23:54 | 40.11217 | -73.29130 | 12635 ft | 370 kts | 176° |
| 2026-05-06 23:54 | 40.08751 | -73.29014 | 12940 ft | 345 kts | 194° |
| 2026-05-06 23:54 | 40.06492 | -73.29831 | 12953 ft | 332 kts | 210° |
| 2026-05-06 23:55 | 40.04556 | -73.31386 | 12941 ft | 324 kts | 224° |
| 2026-05-06 23:55 | 40.02867 | -73.33327 | 12940 ft | 323 kts | 226° |
| 2026-05-06 23:55 | 40.01178 | -73.35254 | 12964 ft | 322 kts | 226° |
| 2026-05-06 23:55 | 39.99484 | -73.37162 | 12998 ft | 321 kts | 225° |
| 2026-05-06 23:56 | 39.97747 | -73.39115 | 13317 ft | 338 kts | 225° |
| 2026-05-06 23:56 | 39.95970 | -73.41100 | 14416 ft | 333 kts | 225° |
| 2026-05-06 23:56 | 39.94200 | -73.43071 | 15349 ft | 336 kts | 226° |
| 2026-05-06 23:56 | 39.92406 | -73.45074 | 16083 ft | 344 kts | 226° |
| 2026-05-06 23:57 | 39.90569 | -73.47125 | 16868 ft | 350 kts | 226° |
| 2026-05-06 23:57 | 39.88711 | -73.49196 | 17697 ft | 354 kts | 226° |
| 2026-05-06 23:57 | 39.86823 | -73.51298 | 18452 ft | 359 kts | 226° |
| 2026-05-06 23:57 | 39.84914 | -73.53418 | 19062 ft | 362 kts | 226° |
| 2026-05-06 23:58 | 39.83006 | -73.55537 | 19171 ft | 361 kts | 226° |
| 2026-05-06 23:58 | 39.81096 | -73.57662 | 19283 ft | 361 kts | 226° |
| 2026-05-06 23:58 | 39.79188 | -73.59786 | 19383 ft | 361 kts | 226° |
| 2026-05-06 23:58 | 39.77278 | -73.61911 | 19486 ft | 361 kts | 226° |
| 2026-05-06 23:59 | 39.75367 | -73.64037 | 19589 ft | 362 kts | 226° |
| 2026-05-06 23:59 | 39.73476 | -73.66137 | 19679 ft | 363 kts | 227° |
| 2026-05-06 23:59 | 39.71562 | -73.68256 | 19781 ft | 361 kts | 227° |
| 2026-05-06 23:59 | 39.69651 | -73.70375 | 19886 ft | 361 kts | 227° |
| 2026-05-07 00:00 | 39.67739 | -73.72495 | 19899 ft | 361 kts | 227° |
| 2026-05-07 00:00 | 39.65824 | -73.74616 | 19901 ft | 361 kts | 227° |
| 2026-05-07 00:00 | 39.63912 | -73.76732 | 19901 ft | 361 kts | 227° |
| 2026-05-07 00:00 | 39.61999 | -73.78847 | 19901 ft | 361 kts | 227° |
| 2026-05-07 00:01 | 39.60086 | -73.80960 | 19894 ft | 361 kts | 227° |
| 2026-05-07 00:01 | 39.58173 | -73.83072 | 19898 ft | 361 kts | 227° |
| 2026-05-07 00:01 | 39.56272 | -73.85170 | 19898 ft | 361 kts | 227° |
| 2026-05-07 00:01 | 39.54354 | -73.87284 | 19898 ft | 361 kts | 227° |
| 2026-05-07 00:02 | 39.52438 | -73.89395 | 19898 ft | 361 kts | 227° |
| 2026-05-07 00:02 | 39.50545 | -73.91479 | 19901 ft | 361 kts | 227° |
| 2026-05-07 00:02 | 39.48628 | -73.93586 | 19895 ft | 361 kts | 227° |
| 2026-05-07 00:02 | 39.46712 | -73.95693 | 19896 ft | 361 kts | 227° |
| 2026-05-07 00:03 | 39.44795 | -73.97799 | 19895 ft | 361 kts | 227° |
| 2026-05-07 00:03 | 39.42875 | -73.99907 | 19901 ft | 361 kts | 227° |
| 2026-05-07 00:03 | 39.40958 | -74.02008 | 19902 ft | 359 kts | 227° |
| 2026-05-07 00:03 | 39.39056 | -74.04090 | 19901 ft | 358 kts | 227° |
| 2026-05-07 00:04 | 39.37149 | -74.06177 | 19905 ft | 359 kts | 227° |
| 2026-05-07 00:04 | 39.35234 | -74.08273 | 19899 ft | 362 kts | 227° |
| 2026-05-07 00:04 | 39.33309 | -74.10376 | 19900 ft | 362 kts | 227° |
| 2026-05-07 00:04 | 39.31411 | -74.12447 | 19900 ft | 362 kts | 227° |
| 2026-05-07 00:05 | 39.29487 | -74.14544 | 19897 ft | 362 kts | 227° |
| 2026-05-07 00:05 | 39.27563 | -74.16641 | 19900 ft | 362 kts | 227° |
| 2026-05-07 00:05 | 39.25641 | -74.18734 | 19900 ft | 362 kts | 227° |
| 2026-05-07 00:05 | 39.23715 | -74.20829 | 19900 ft | 362 kts | 227° |
| 2026-05-07 00:06 | 39.21790 | -74.22923 | 19892 ft | 362 kts | 227° |
| 2026-05-07 00:06 | 39.19862 | -74.25017 | 19897 ft | 362 kts | 227° |
| 2026-05-07 00:06 | 39.17939 | -74.27106 | 19899 ft | 362 kts | 227° |
| 2026-05-07 00:06 | 39.16004 | -74.29212 | 19894 ft | 366 kts | 227° |
| 2026-05-07 00:07 | 39.14062 | -74.31322 | 19898 ft | 365 kts | 227° |
| 2026-05-07 00:07 | 39.12117 | -74.33429 | 19904 ft | 365 kts | 227° |
| 2026-05-07 00:07 | 39.10171 | -74.35535 | 19904 ft | 365 kts | 227° |
| 2026-05-07 00:07 | 39.08226 | -74.37636 | 19900 ft | 364 kts | 227° |
| 2026-05-07 00:08 | 39.06290 | -74.39725 | 19905 ft | 364 kts | 227° |
| 2026-05-07 00:08 | 39.04350 | -74.41820 | 19906 ft | 364 kts | 227° |
| 2026-05-07 00:08 | 39.02410 | -74.43915 | 19906 ft | 363 kts | 227° |
| 2026-05-07 00:08 | 39.00473 | -74.46004 | 19908 ft | 364 kts | 227° |
| 2026-05-07 00:09 | 38.98534 | -74.48093 | 19892 ft | 364 kts | 227° |
| 2026-05-07 00:09 | 38.96587 | -74.50192 | 19904 ft | 366 kts | 227° |
| 2026-05-07 00:09 | 38.94637 | -74.52289 | 19906 ft | 366 kts | 227° |
| 2026-05-07 00:09 | 38.92702 | -74.54404 | 19906 ft | 364 kts | 228° |
| 2026-05-07 00:10 | 38.90855 | -74.56559 | 19907 ft | 364 kts | 229° |
| 2026-05-07 00:10 | 38.89002 | -74.58766 | 19909 ft | 363 kts | 230° |
| 2026-05-07 00:10 | 38.87148 | -74.60972 | 19909 ft | 363 kts | 229° |
| 2026-05-07 00:10 | 38.85546 | -74.62866 | 19909 ft | 364 kts | 229° |
| 2026-05-07 00:11 | 38.83680 | -74.65059 | 19906 ft | 364 kts | 229° |
| 2026-05-07 00:11 | 38.81810 | -74.67248 | 19907 ft | 364 kts | 229° |
| 2026-05-07 00:11 | 38.79939 | -74.69434 | 19907 ft | 364 kts | 229° |
| 2026-05-07 00:11 | 38.78064 | -74.71622 | 19904 ft | 367 kts | 229° |
| 2026-05-07 00:12 | 38.76172 | -74.73831 | 19910 ft | 367 kts | 229° |
| 2026-05-07 00:12 | 38.74245 | -74.75986 | 19914 ft | 369 kts | 226° |
| 2026-05-07 00:12 | 38.72250 | -74.78058 | 19906 ft | 369 kts | 226° |
| 2026-05-07 00:12 | 38.70256 | -74.80133 | 19906 ft | 369 kts | 226° |
| 2026-05-07 00:13 | 38.68261 | -74.82212 | 19909 ft | 370 kts | 226° |
| 2026-05-07 00:13 | 38.66278 | -74.84277 | 19911 ft | 369 kts | 226° |
| 2026-05-07 00:13 | 38.64286 | -74.86351 | 19909 ft | 369 kts | 226° |
| 2026-05-07 00:13 | 38.62293 | -74.88424 | 19908 ft | 369 kts | 226° |
| 2026-05-07 00:14 | 38.60297 | -74.90499 | 19905 ft | 369 kts | 226° |
| 2026-05-07 00:14 | 38.58302 | -74.92571 | 19907 ft | 371 kts | 226° |
| 2026-05-07 00:14 | 38.56296 | -74.94654 | 19913 ft | 371 kts | 226° |
| 2026-05-07 00:14 | 38.54289 | -74.96734 | 19914 ft | 371 kts | 226° |
| 2026-05-07 00:15 | 38.52286 | -74.98814 | 19914 ft | 371 kts | 226° |
| 2026-05-07 00:15 | 38.50331 | -75.00950 | 19910 ft | 369 kts | 228° |
| 2026-05-07 00:15 | 38.48407 | -75.03123 | 19908 ft | 369 kts | 228° |
| 2026-05-07 00:15 | 38.46467 | -75.05277 | 19906 ft | 371 kts | 225° |
| 2026-05-07 00:16 | 38.44398 | -75.07277 | 19907 ft | 371 kts | 224° |
| 2026-05-07 00:16 | 38.42336 | -75.09241 | 19903 ft | 370 kts | 224° |
| 2026-05-07 00:16 | 38.40303 | -75.11177 | 19907 ft | 370 kts | 224° |
| 2026-05-07 00:16 | 38.38233 | -75.13148 | 19894 ft | 373 kts | 224° |
| 2026-05-07 00:17 | 38.36151 | -75.15128 | 19904 ft | 373 kts | 224° |
| 2026-05-07 00:17 | 38.34068 | -75.17104 | 19903 ft | 373 kts | 224° |
| 2026-05-07 00:17 | 38.31981 | -75.19082 | 19903 ft | 373 kts | 224° |
| 2026-05-07 00:17 | 38.29898 | -75.21055 | 19903 ft | 374 kts | 224° |
| 2026-05-07 00:18 | 38.27814 | -75.23029 | 19903 ft | 373 kts | 224° |
| 2026-05-07 00:18 | 38.25728 | -75.25003 | 19903 ft | 374 kts | 224° |
| 2026-05-07 00:18 | 38.23642 | -75.26976 | 19904 ft | 374 kts | 224° |
| 2026-05-07 00:18 | 38.21557 | -75.28945 | 19906 ft | 373 kts | 224° |
| 2026-05-07 00:19 | 38.19473 | -75.30913 | 19908 ft | 373 kts | 224° |
| 2026-05-07 00:19 | 38.17379 | -75.32892 | 19909 ft | 377 kts | 224° |
| 2026-05-07 00:19 | 38.15278 | -75.34873 | 19908 ft | 376 kts | 224° |
| 2026-05-07 00:19 | 38.13176 | -75.36853 | 19904 ft | 376 kts | 224° |
| 2026-05-07 00:20 | 38.11076 | -75.38829 | 19906 ft | 376 kts | 223° |
| 2026-05-07 00:20 | 38.08981 | -75.40799 | 19904 ft | 376 kts | 223° |
| 2026-05-07 00:20 | 38.06908 | -75.42754 | 19922 ft | 375 kts | 225° |
| 2026-05-07 00:20 | 38.04959 | -75.44890 | 19911 ft | 366 kts | 231° |
| 2026-05-07 00:21 | 38.03245 | -75.47261 | 19915 ft | 368 kts | 236° |
| 2026-05-07 00:21 | 38.01580 | -75.49779 | 19916 ft | 391 kts | 236° |
| 2026-05-07 00:21 | 37.99779 | -75.52481 | 19916 ft | 410 kts | 235° |
| 2026-05-07 00:21 | 37.97905 | -75.55266 | 19909 ft | 419 kts | 235° |
| 2026-05-07 00:22 | 37.96009 | -75.58067 | 19916 ft | 418 kts | 234° |
| 2026-05-07 00:22 | 37.94113 | -75.60864 | 19919 ft | 418 kts | 234° |
| 2026-05-07 00:22 | 37.92217 | -75.63663 | 19926 ft | 419 kts | 234° |
| 2026-05-07 00:22 | 37.90321 | -75.66464 | 19921 ft | 418 kts | 234° |
| 2026-05-07 00:23 | 37.88426 | -75.69264 | 19922 ft | 418 kts | 234° |
| 2026-05-07 00:23 | 37.86534 | -75.72057 | 19919 ft | 418 kts | 234° |
| 2026-05-07 00:23 | 37.84640 | -75.74853 | 19919 ft | 418 kts | 234° |
| 2026-05-07 00:23 | 37.82745 | -75.77646 | 19916 ft | 419 kts | 234° |
| 2026-05-07 00:24 | 37.80851 | -75.80435 | 19927 ft | 415 kts | 234° |
| 2026-05-07 00:24 | 37.78968 | -75.83207 | 19899 ft | 418 kts | 234° |
| 2026-05-07 00:24 | 37.77707 | -75.85065 | 19912 ft | 421 kts | 234° |
| 2026-05-07 00:24 | 37.75182 | -75.88776 | 19922 ft | 420 kts | 234° |
| 2026-05-07 00:25 | 37.73279 | -75.91568 | 19923 ft | 420 kts | 234° |
| 2026-05-07 00:25 | 37.71374 | -75.94361 | 19914 ft | 420 kts | 234° |
| 2026-05-07 00:25 | 37.69469 | -75.97153 | 19919 ft | 420 kts | 234° |
| 2026-05-07 00:25 | 37.68180 | -75.99040 | 19917 ft | 420 kts | 234° |
| 2026-05-07 00:26 | 37.66270 | -76.01835 | 19914 ft | 420 kts | 234° |
| 2026-05-07 00:26 | 37.64387 | -76.04588 | 19913 ft | 420 kts | 234° |
| 2026-05-07 00:26 | 37.62479 | -76.07375 | 19921 ft | 420 kts | 234° |
| 2026-05-07 00:26 | 37.60572 | -76.10158 | 19920 ft | 420 kts | 234° |
| 2026-05-07 00:27 | 37.58662 | -76.12945 | 19915 ft | 420 kts | 234° |
| 2026-05-07 00:27 | 37.56752 | -76.15727 | 19924 ft | 418 kts | 234° |
| 2026-05-07 00:27 | 37.54854 | -76.18488 | 19920 ft | 417 kts | 234° |
| 2026-05-07 00:27 | 37.52953 | -76.21255 | 19921 ft | 417 kts | 234° |
| 2026-05-07 00:28 | 37.51052 | -76.24018 | 19914 ft | 417 kts | 234° |
| 2026-05-07 00:28 | 37.49152 | -76.26778 | 19916 ft | 417 kts | 234° |
| 2026-05-07 00:28 | 37.47248 | -76.29541 | 19919 ft | 417 kts | 234° |
| 2026-05-07 00:28 | 37.45346 | -76.32299 | 19917 ft | 417 kts | 234° |
| 2026-05-07 00:29 | 37.43442 | -76.35056 | 19919 ft | 417 kts | 234° |
| 2026-05-07 00:29 | 37.41535 | -76.37817 | 19917 ft | 418 kts | 234° |
| 2026-05-07 00:30 | 37.35783 | -76.46132 | 19911 ft | 421 kts | 234° |
| 2026-05-07 00:30 | 37.33881 | -76.48875 | 19916 ft | 421 kts | 234° |
| 2026-05-07 00:30 | 37.31969 | -76.51630 | 19917 ft | 419 kts | 234° |
| 2026-05-07 00:30 | 37.30047 | -76.54394 | 19918 ft | 417 kts | 234° |
| 2026-05-07 00:31 | 37.28149 | -76.57125 | 19918 ft | 418 kts | 234° |
| 2026-05-07 00:31 | 37.26246 | -76.59861 | 19892 ft | 412 kts | 234° |
| 2026-05-07 00:31 | 37.24394 | -76.62512 | 19786 ft | 399 kts | 234° |
| 2026-05-07 00:31 | 37.22592 | -76.65091 | 19628 ft | 382 kts | 234° |
| 2026-05-07 00:32 | 37.20884 | -76.67535 | 19468 ft | 363 kts | 234° |
| 2026-05-07 00:32 | 37.19260 | -76.69860 | 19292 ft | 346 kts | 234° |
| 2026-05-07 00:32 | 37.17725 | -76.72059 | 19153 ft | 330 kts | 235° |
| 2026-05-07 00:32 | 37.16250 | -76.74172 | 19032 ft | 315 kts | 235° |
| 2026-05-07 00:33 | 37.14843 | -76.76189 | 18896 ft | 301 kts | 235° |
| 2026-05-07 00:33 | 37.13477 | -76.78149 | 18543 ft | 296 kts | 235° |
| 2026-05-07 00:33 | 37.12125 | -76.80094 | 18074 ft | 296 kts | 235° |
| 2026-05-07 00:33 | 37.10775 | -76.82034 | 17575 ft | 294 kts | 235° |
| 2026-05-07 00:34 | 37.09433 | -76.83955 | 17094 ft | 293 kts | 234° |
| 2026-05-07 00:34 | 37.08093 | -76.85868 | 16612 ft | 291 kts | 234° |
| 2026-05-07 00:34 | 37.06759 | -76.87771 | 16171 ft | 290 kts | 234° |
| 2026-05-07 00:34 | 37.05431 | -76.89663 | 15713 ft | 289 kts | 234° |
| 2026-05-07 00:35 | 37.04109 | -76.91545 | 15263 ft | 287 kts | 234° |
| 2026-05-07 00:35 | 37.02793 | -76.93419 | 14824 ft | 286 kts | 233° |
| 2026-05-07 00:35 | 37.01482 | -76.95283 | 14385 ft | 285 kts | 233° |
| 2026-05-07 00:35 | 37.00177 | -76.97139 | 13948 ft | 284 kts | 233° |
| 2026-05-07 00:36 | 36.98876 | -76.98988 | 13469 ft | 283 kts | 232° |
| 2026-05-07 00:36 | 36.97598 | -77.00801 | 13042 ft | 280 kts | 232° |
| 2026-05-07 00:36 | 36.96331 | -77.02595 | 12619 ft | 278 kts | 232° |
| 2026-05-07 00:36 | 36.95059 | -77.04398 | 12247 ft | 274 kts | 232° |
| 2026-05-07 00:37 | 36.93810 | -77.06167 | 12151 ft | 275 kts | 232° |
| 2026-05-07 00:37 | 36.92535 | -77.07977 | 12054 ft | 277 kts | 232° |
| 2026-05-07 00:37 | 36.91267 | -77.09768 | 11972 ft | 274 kts | 232° |
| 2026-05-07 00:37 | 36.90005 | -77.11551 | 11968 ft | 274 kts | 232° |
| 2026-05-07 00:38 | 36.88742 | -77.13338 | 11967 ft | 274 kts | 232° |
| 2026-05-07 00:38 | 36.87476 | -77.15127 | 11965 ft | 275 kts | 232° |
| 2026-05-07 00:38 | 36.86264 | -77.16839 | 11966 ft | 275 kts | 232° |
| 2026-05-07 00:38 | 36.84999 | -77.18625 | 11962 ft | 274 kts | 232° |
| 2026-05-07 00:39 | 36.83735 | -77.20409 | 11964 ft | 275 kts | 232° |
| 2026-05-07 00:39 | 36.82469 | -77.22193 | 11961 ft | 274 kts | 232° |
| 2026-05-07 00:39 | 36.81204 | -77.23973 | 11976 ft | 274 kts | 232° |
| 2026-05-07 00:39 | 36.79944 | -77.25747 | 11981 ft | 273 kts | 232° |
| 2026-05-07 00:40 | 36.78682 | -77.27522 | 11970 ft | 274 kts | 232° |
| 2026-05-07 00:40 | 36.77413 | -77.29309 | 11992 ft | 275 kts | 232° |
| 2026-05-07 00:40 | 36.76146 | -77.31090 | 11993 ft | 274 kts | 232° |
| 2026-05-07 00:40 | 36.74877 | -77.32872 | 11998 ft | 275 kts | 232° |
| 2026-05-07 00:41 | 36.73609 | -77.34653 | 11998 ft | 274 kts | 232° |
| 2026-05-07 00:41 | 36.72340 | -77.36433 | 11995 ft | 274 kts | 232° |
| 2026-05-07 00:41 | 36.71072 | -77.38212 | 11995 ft | 275 kts | 232° |
| 2026-05-07 00:41 | 36.69801 | -77.39994 | 11991 ft | 275 kts | 232° |
| 2026-05-07 00:42 | 36.68532 | -77.41773 | 11992 ft | 275 kts | 232° |
| 2026-05-07 00:42 | 36.67263 | -77.43549 | 11995 ft | 275 kts | 232° |
| 2026-05-07 00:42 | 36.65991 | -77.45331 | 12000 ft | 275 kts | 232° |
| 2026-05-07 00:42 | 36.64737 | -77.47086 | 11992 ft | 274 kts | 232° |
| 2026-05-07 00:43 | 36.63466 | -77.48864 | 11992 ft | 275 kts | 232° |
| 2026-05-07 00:43 | 36.62192 | -77.50644 | 11998 ft | 275 kts | 232° |
| 2026-05-07 00:43 | 36.60921 | -77.52419 | 12001 ft | 274 kts | 232° |
| 2026-05-07 00:43 | 36.59650 | -77.54194 | 11993 ft | 275 kts | 232° |
| 2026-05-07 00:44 | 36.58379 | -77.55969 | 12001 ft | 275 kts | 232° |
| 2026-05-07 00:44 | 36.57108 | -77.57742 | 11990 ft | 275 kts | 232° |
| 2026-05-07 00:44 | 36.55833 | -77.59520 | 11980 ft | 275 kts | 232° |
| 2026-05-07 00:44 | 36.54562 | -77.61287 | 11975 ft | 273 kts | 232° |
| 2026-05-07 00:45 | 36.53294 | -77.63053 | 11975 ft | 274 kts | 232° |
| 2026-05-07 00:45 | 36.52026 | -77.64818 | 11980 ft | 274 kts | 232° |
| 2026-05-07 00:45 | 36.50758 | -77.66583 | 11977 ft | 273 kts | 232° |
| 2026-05-07 00:45 | 36.49492 | -77.68344 | 11979 ft | 273 kts | 232° |
| 2026-05-07 00:46 | 36.48223 | -77.70108 | 11980 ft | 274 kts | 232° |
| 2026-05-07 00:46 | 36.46956 | -77.71868 | 11980 ft | 273 kts | 232° |
| 2026-05-07 00:46 | 36.45690 | -77.73625 | 11984 ft | 274 kts | 232° |
| 2026-05-07 00:46 | 36.44420 | -77.75389 | 11985 ft | 274 kts | 232° |
| 2026-05-07 00:47 | 36.43152 | -77.77147 | 11985 ft | 273 kts | 232° |
| 2026-05-07 00:47 | 36.41884 | -77.78904 | 11981 ft | 273 kts | 232° |
| 2026-05-07 00:47 | 36.40615 | -77.80663 | 11981 ft | 274 kts | 232° |
| 2026-05-07 00:47 | 36.39345 | -77.82421 | 11964 ft | 273 kts | 232° |
| 2026-05-07 00:48 | 36.38080 | -77.84172 | 11966 ft | 273 kts | 232° |
| 2026-05-07 00:48 | 36.36811 | -77.85928 | 11952 ft | 273 kts | 232° |
| 2026-05-07 00:48 | 36.35556 | -77.87663 | 11964 ft | 274 kts | 232° |
| 2026-05-07 00:48 | 36.34284 | -77.89420 | 11965 ft | 273 kts | 232° |
| 2026-05-07 00:49 | 36.33017 | -77.91170 | 11963 ft | 273 kts | 232° |
| 2026-05-07 00:49 | 36.31801 | -77.92850 | 11969 ft | 274 kts | 232° |
| 2026-05-07 00:49 | 36.30526 | -77.94609 | 11967 ft | 273 kts | 232° |
| 2026-05-07 00:49 | 36.29257 | -77.96360 | 11976 ft | 273 kts | 232° |
| 2026-05-07 00:50 | 36.27987 | -77.98112 | 11977 ft | 273 kts | 232° |
| 2026-05-07 00:50 | 36.26718 | -77.99860 | 11975 ft | 273 kts | 232° |
| 2026-05-07 00:50 | 36.25446 | -78.01614 | 11976 ft | 274 kts | 232° |
| 2026-05-07 00:50 | 36.24173 | -78.03367 | 11975 ft | 273 kts | 232° |
| 2026-05-07 00:51 | 36.23045 | -78.05234 | 11977 ft | 270 kts | 241° |
| 2026-05-07 00:51 | 36.22185 | -78.07293 | 11980 ft | 269 kts | 248° |
| 2026-05-07 00:51 | 36.21419 | -78.09406 | 11986 ft | 269 kts | 248° |
| 2026-05-07 00:51 | 36.20648 | -78.11515 | 11986 ft | 268 kts | 248° |
| 2026-05-07 00:52 | 36.19915 | -78.13639 | 11988 ft | 268 kts | 249° |
| 2026-05-07 00:52 | 36.19219 | -78.15745 | 11989 ft | 268 kts | 250° |
| 2026-05-07 00:52 | 36.18516 | -78.17887 | 11991 ft | 268 kts | 250° |
| 2026-05-07 00:52 | 36.17810 | -78.20024 | 11993 ft | 268 kts | 249° |
| 2026-05-07 00:53 | 36.17101 | -78.22151 | 11994 ft | 268 kts | 249° |
| 2026-05-07 00:53 | 36.16388 | -78.24280 | 11982 ft | 265 kts | 249° |
| 2026-05-07 00:53 | 36.15693 | -78.26347 | 11995 ft | 253 kts | 249° |
| 2026-05-07 00:53 | 36.15065 | -78.28322 | 11909 ft | 240 kts | 253° |
| 2026-05-07 00:54 | 36.14676 | -78.30275 | 11827 ft | 227 kts | 259° |
| 2026-05-07 00:54 | 36.14356 | -78.32142 | 11621 ft | 218 kts | 258° |
| 2026-05-07 00:54 | 36.14036 | -78.33964 | 11140 ft | 217 kts | 258° |
| 2026-05-07 00:54 | 36.13713 | -78.35781 | 10666 ft | 215 kts | 258° |
| 2026-05-07 00:55 | 36.13391 | -78.37579 | 10235 ft | 213 kts | 258° |
| 2026-05-07 00:55 | 36.13073 | -78.39355 | 9799 ft | 211 kts | 258° |
| 2026-05-07 00:55 | 36.12754 | -78.41116 | 9329 ft | 208 kts | 256° |
| 2026-05-07 00:55 | 36.12066 | -78.42681 | 8803 ft | 214 kts | 227° |
| 2026-05-07 00:56 | 36.10748 | -78.43535 | 8325 ft | 227 kts | 197° |
| 2026-05-07 00:56 | 36.09132 | -78.43390 | 7829 ft | 245 kts | 167° |
| 2026-05-07 00:56 | 36.07681 | -78.42198 | 7387 ft | 257 kts | 142° |
| 2026-05-07 00:56 | 36.06420 | -78.40625 | 6969 ft | 256 kts | 140° |
| 2026-05-07 00:57 | 36.05176 | -78.39061 | 6571 ft | 254 kts | 140° |
| 2026-05-07 00:57 | 36.03941 | -78.37511 | 6247 ft | 248 kts | 140° |
| 2026-05-07 00:57 | 36.02731 | -78.35984 | 6155 ft | 253 kts | 140° |
| 2026-05-07 00:57 | 36.01505 | -78.34436 | 6061 ft | 251 kts | 140° |
| 2026-05-07 00:58 | 36.00286 | -78.32890 | 6004 ft | 251 kts | 140° |
| 2026-05-07 00:58 | 35.99050 | -78.31338 | 6010 ft | 253 kts | 140° |
| 2026-05-07 00:58 | 35.97907 | -78.29687 | 6005 ft | 258 kts | 123° |
| 2026-05-07 00:58 | 35.97423 | -78.27535 | 6011 ft | 266 kts | 91° |
| 2026-05-07 00:59 | 35.98817 | -78.23435 | 6004 ft | 262 kts | 50° |
| 2026-05-07 00:59 | 35.99866 | -78.21604 | 6009 ft | 262 kts | 50° |
| 2026-05-07 00:59 | 36.00925 | -78.19764 | 6002 ft | 262 kts | 50° |
| 2026-05-07 01:00 | 36.01984 | -78.17935 | 6001 ft | 261 kts | 50° |
| 2026-05-07 01:00 | 36.03041 | -78.16094 | 6009 ft | 264 kts | 50° |
| 2026-05-07 01:00 | 36.04103 | -78.14246 | 5995 ft | 264 kts | 50° |
| 2026-05-07 01:00 | 36.05161 | -78.12410 | 6002 ft | 261 kts | 50° |
| 2026-05-07 01:01 | 36.06214 | -78.10578 | 6000 ft | 262 kts | 50° |
| 2026-05-07 01:01 | 36.07278 | -78.08740 | 5998 ft | 263 kts | 50° |
| 2026-05-07 01:01 | 36.08331 | -78.06926 | 5998 ft | 262 kts | 50° |
| 2026-05-07 01:01 | 36.09388 | -78.05097 | 5991 ft | 261 kts | 50° |
| 2026-05-07 01:02 | 36.10442 | -78.03274 | 5987 ft | 261 kts | 50° |
| 2026-05-07 01:02 | 36.11504 | -78.01447 | 5979 ft | 261 kts | 49° |
| 2026-05-07 01:02 | 36.12813 | -77.99971 | 5983 ft | 251 kts | 20° |
| 2026-05-07 01:02 | 36.14438 | -77.99483 | 6001 ft | 236 kts | 352° |
| 2026-05-07 01:03 | 36.16077 | -77.99514 | 5978 ft | 235 kts | 350° |
| 2026-05-07 01:03 | 36.17713 | -77.99565 | 5974 ft | 235 kts | 350° |
| 2026-05-07 01:03 | 36.19349 | -77.99622 | 5979 ft | 235 kts | 350° |
| 2026-05-07 01:03 | 36.20991 | -77.99680 | 5972 ft | 237 kts | 348° |
| 2026-05-07 01:04 | 36.22503 | -78.00208 | 5983 ft | 220 kts | 319° |
| 2026-05-07 01:04 | 36.23464 | -78.01569 | 5971 ft | 207 kts | 287° |
| 2026-05-07 01:04 | 36.23634 | -78.03286 | 5978 ft | 201 kts | 260° |
| 2026-05-07 01:04 | 36.23180 | -78.04920 | 5984 ft | 203 kts | 245° |
| 2026-05-07 01:05 | 36.22553 | -78.06483 | 5978 ft | 203 kts | 245° |
| 2026-05-07 01:05 | 36.21894 | -78.08164 | 5992 ft | 243 kts | 246° |
| 2026-05-07 01:05 | 36.21103 | -78.10246 | 5982 ft | 284 kts | 246° |
| 2026-05-07 01:05 | 36.20269 | -78.12491 | 5986 ft | 288 kts | 247° |
| 2026-05-07 01:06 | 36.19485 | -78.14785 | 5987 ft | 289 kts | 248° |
| 2026-05-07 01:06 | 36.18744 | -78.17030 | 5994 ft | 292 kts | 249° |
| 2026-05-07 01:06 | 36.17980 | -78.19354 | 5994 ft | 291 kts | 249° |
| 2026-05-07 01:06 | 36.17216 | -78.21671 | 5997 ft | 291 kts | 248° |
| 2026-05-07 01:07 | 36.16448 | -78.23980 | 5983 ft | 290 kts | 249° |
| 2026-05-07 01:07 | 36.15677 | -78.26289 | 6002 ft | 290 kts | 249° |
| 2026-05-07 01:07 | 36.14971 | -78.28627 | 5999 ft | 288 kts | 254° |
| 2026-05-07 01:07 | 36.14514 | -78.31032 | 6001 ft | 288 kts | 258° |
| 2026-05-07 01:08 | 36.14098 | -78.33427 | 6005 ft | 277 kts | 258° |
| 2026-05-07 01:08 | 36.13704 | -78.35653 | 6005 ft | 259 kts | 258° |
| 2026-05-07 01:08 | 36.13333 | -78.37747 | 6006 ft | 240 kts | 258° |
| 2026-05-07 01:08 | 36.12988 | -78.39693 | 6001 ft | 223 kts | 258° |
| 2026-05-07 01:09 | 36.12666 | -78.41510 | 5922 ft | 211 kts | 258° |
| 2026-05-07 01:09 | 36.12356 | -78.43238 | 5804 ft | 201 kts | 255° |
| 2026-05-07 01:09 | 36.11821 | -78.44827 | 5546 ft | 201 kts | 243° |
| 2026-05-07 01:09 | 36.11100 | -78.46303 | 5264 ft | 201 kts | 240° |
| 2026-05-07 01:10 | 36.10359 | -78.47754 | 5124 ft | 203 kts | 243° |
| 2026-05-07 01:10 | 36.09999 | -78.49419 | 5029 ft | 200 kts | 273° |
| 2026-05-07 01:10 | 36.10527 | -78.51006 | 5000 ft | 209 kts | 306° |
| 2026-05-07 01:10 | 36.11582 | -78.52284 | 4995 ft | 212 kts | 310° |
| 2026-05-07 01:11 | 36.12386 | -78.53727 | 4998 ft | 201 kts | 282° |
| 2026-05-07 01:11 | 36.12331 | -78.55401 | 5290 ft | 201 kts | 249° |
| 2026-05-07 01:11 | 36.11458 | -78.56750 | 5591 ft | 209 kts | 218° |
| 2026-05-07 01:11 | 36.10035 | -78.57306 | 5647 ft | 225 kts | 187° |
| 2026-05-07 01:12 | 36.08462 | -78.56937 | 5457 ft | 234 kts | 171° |
| 2026-05-07 01:12 | 36.06909 | -78.56359 | 5207 ft | 231 kts | 170° |
| 2026-05-07 01:12 | 36.05373 | -78.55800 | 4962 ft | 229 kts | 170° |
| 2026-05-07 01:12 | 36.04365 | -78.55433 | 4809 ft | 228 kts | 170° |
| 2026-05-07 01:13 | 36.02850 | -78.54877 | 4554 ft | 226 kts | 171° |
| 2026-05-07 01:13 | 36.01347 | -78.54322 | 4316 ft | 225 kts | 171° |
| 2026-05-07 01:13 | 35.99888 | -78.54163 | 4426 ft | 185 kts | 204° |
| 2026-05-07 01:13 | 35.98767 | -78.55095 | 4053 ft | 238 kts | 237° |
| 2026-05-07 01:14 | 35.97860 | -78.57089 | 4132 ft | 293 kts | 244° |
| 2026-05-07 01:14 | 35.96906 | -78.59554 | 4037 ft | 344 kts | 245° |
| 2026-05-07 01:14 | 35.95892 | -78.62320 | 4833 ft | 350 kts | 246° |
| 2026-05-07 01:14 | 35.95037 | -78.65029 | 6003 ft | 311 kts | 262° |
| 2026-05-07 01:15 | 35.95379 | -78.67395 | 6724 ft | 274 kts | 296° |
| 2026-05-07 01:15 | 35.96614 | -78.69207 | 6291 ft | 275 kts | 308° |
| 2026-05-07 01:15 | 35.97842 | -78.70919 | 6327 ft | 253 kts | 305° |
| 2026-05-07 01:15 | 35.98849 | -78.72613 | 6213 ft | 241 kts | 303° |
| 2026-05-07 01:16 | 36.00003 | -78.74064 | 6123 ft | 233 kts | 310° |
| 2026-05-07 01:16 | 36.01166 | -78.75385 | 6042 ft | 221 kts | 310° |
| 2026-05-07 01:16 | 36.02275 | -78.76632 | 5965 ft | 210 kts | 310° |
| 2026-05-07 01:16 | 36.03322 | -78.77799 | 5855 ft | 202 kts | 310° |
| 2026-05-07 01:17 | 36.04383 | -78.78963 | 5603 ft | 201 kts | 310° |
| 2026-05-07 01:17 | 36.05437 | -78.80101 | 5304 ft | 201 kts | 310° |
| 2026-05-07 01:17 | 36.06495 | -78.81238 | 5038 ft | 202 kts | 310° |
| 2026-05-07 01:17 | 36.07544 | -78.82350 | 4799 ft | 200 kts | 310° |
| 2026-05-07 01:18 | 36.08605 | -78.83460 | 4538 ft | 200 kts | 311° |
| 2026-05-07 01:18 | 36.09669 | -78.84584 | 4244 ft | 203 kts | 310° |
| 2026-05-07 01:18 | 36.10844 | -78.85555 | 4071 ft | 211 kts | 334° |
| 2026-05-07 01:18 | 36.12388 | -78.85620 | 4006 ft | 234 kts | 8° |
| 2026-05-07 01:19 | 36.13814 | -78.84598 | 3998 ft | 246 kts | 43° |
| 2026-05-07 01:19 | 36.14664 | -78.82734 | 3997 ft | 252 kts | 77° |
| 2026-05-07 01:19 | 36.15023 | -78.80618 | 3998 ft | 249 kts | 80° |
| 2026-05-07 01:19 | 36.15339 | -78.78522 | 3995 ft | 248 kts | 81° |
| 2026-05-07 01:20 | 36.15649 | -78.76472 | 3997 ft | 237 kts | 81° |
| 2026-05-07 01:20 | 36.15944 | -78.74514 | 3976 ft | 228 kts | 81° |
| 2026-05-07 01:20 | 36.16247 | -78.72577 | 3976 ft | 228 kts | 81° |
| 2026-05-07 01:20 | 36.16548 | -78.70651 | 3980 ft | 228 kts | 81° |
| 2026-05-07 01:21 | 36.16849 | -78.68739 | 3979 ft | 225 kts | 80° |
| 2026-05-07 01:21 | 36.17133 | -78.66856 | 3978 ft | 220 kts | 81° |
| 2026-05-07 01:21 | 36.17370 | -78.65011 | 3970 ft | 219 kts | 93° |
| 2026-05-07 01:21 | 36.16996 | -78.63253 | 3980 ft | 209 kts | 124° |
| 2026-05-07 01:22 | 36.16131 | -78.61858 | 4141 ft | 201 kts | 146° |
| 2026-05-07 01:22 | 36.14892 | -78.60801 | 4390 ft | 247 kts | 154° |
| 2026-05-07 01:22 | 36.13111 | -78.59872 | 4328 ft | 307 kts | 170° |
| 2026-05-07 01:22 | 36.10876 | -78.59171 | 4328 ft | 344 kts | 171° |
| 2026-05-07 01:23 | 36.08614 | -78.58460 | 4171 ft | 326 kts | 170° |
| 2026-05-07 01:23 | 36.06468 | -78.57895 | 4008 ft | 303 kts | 181° |
| 2026-05-07 01:23 | 36.04496 | -78.58237 | 3862 ft | 276 kts | 205° |
| 2026-05-07 01:23 | 36.02903 | -78.59440 | 3476 ft | 265 kts | 220° |
| 2026-05-07 01:24 | 36.01486 | -78.60840 | 3241 ft | 254 kts | 220° |
| 2026-05-07 01:24 | 36.00176 | -78.62209 | 3138 ft | 238 kts | 226° |
| 2026-05-07 01:24 | 35.99200 | -78.63685 | 3031 ft | 206 kts | 237° |
| 2026-05-07 01:24 | 35.98480 | -78.65140 | 2638 ft | 194 kts | 240° |
| 2026-05-07 01:25 | 35.97847 | -78.66553 | 2349 ft | 181 kts | 240° |
| 2026-05-07 01:25 | 35.97251 | -78.67879 | 2214 ft | 178 kts | 240° |
| 2026-05-07 01:25 | 35.96653 | -78.69223 | 2276 ft | 176 kts | 240° |
| 2026-05-07 01:25 | 35.95960 | -78.70468 | 2146 ft | 178 kts | 226° |
| 2026-05-07 01:26 | 35.94961 | -78.71373 | 1841 ft | 178 kts | 213° |
| 2026-05-07 01:26 | 35.93945 | -78.72223 | 1647 ft | 181 kts | 221° |
| 2026-05-07 01:26 | 35.93039 | -78.73307 | 1458 ft | 183 kts | 226° |
| 2026-05-07 01:26 | 35.92159 | -78.74418 | 1287 ft | 180 kts | 224° |
| 2026-05-07 01:27 | 35.91240 | -78.75513 | 985 ft | 189 kts | 224° |
| 2026-05-07 01:27 | 35.90278 | -78.76721 | 732 ft | 204 kts | 223° |
| 2026-05-07 01:27 | 35.89281 | -78.77923 | 436 ft | 190 kts | 223° |
| 2026-05-07 01:27 | 35.88535 | -78.78830 | 419 ft | 85 kts | 226° |
| 2026-05-07 01:28 | 35.88289 | -78.79070 | 426 ft | 24 kts | 172° |
| 2026-05-07 01:28 | 35.88254 | -78.79047 | 428 ft | 2 kts | 126° |
| 2026-05-07 01:28 | 35.88253 | -78.79044 | 428 ft | 0 kts | 126° |
| 2026-05-07 01:29 | 35.88252 | -78.79043 | 428 ft | 1 kts | 126° |
| 2026-05-07 01:29 | 35.88235 | -78.79042 | 419 ft | 5 kts | 189° |
| 2026-05-07 01:30 | 35.88198 | -78.79077 | 421 ft | 9 kts | 224° |
| 2026-05-07 01:30 | 35.88145 | -78.79143 | 430 ft | 13 kts | 225° |
| 2026-05-07 01:30 | 35.88073 | -78.79233 | 432 ft | 17 kts | 225° |
| 2026-05-07 01:30 | 35.87977 | -78.79349 | 419 ft | 21 kts | 225° |
| 2026-05-07 01:31 | 35.87864 | -78.79488 | 424 ft | 25 kts | 225° |
| 2026-05-07 01:31 | 35.87740 | -78.79638 | 428 ft | 9 kts | 224° |
| 2026-05-07 01:31 | 35.87693 | -78.79698 | 421 ft | 13 kts | 229° |
| 2026-05-07 01:31 | 35.87613 | -78.79801 | 428 ft | 19 kts | 224° |
| 2026-05-07 01:32 | 35.87597 | -78.79818 | 416 ft | 3 kts | 216° |
| 2026-05-07 01:32 | 35.87559 | -78.79826 | 426 ft | 8 kts | 161° |
| 2026-05-07 01:32 | 35.86909 | -78.79509 | 985 ft | 280 kts | 161° |
| 2026-05-07 01:32 | 35.84754 | -78.78973 | 692 ft | 267 kts | 178° |
| 2026-05-07 01:33 | 35.86028 | -78.79210 | 499 ft | 0 kts | 161° |